createdAt,value
2022-12-18T00:00:02.032Z,-4.26
2022-12-18T00:05:00.429Z,-4.25
2022-12-18T00:10:00.377Z,-4.15
2022-12-18T00:15:00.334Z,-4.13
2022-12-18T00:20:00.468Z,-4.19
2022-12-18T00:25:00.363Z,-4.30
2022-12-18T00:30:00.413Z,-4.41
2022-12-18T00:35:00.347Z,-4.48
2022-12-18T00:40:00.469Z,-4.55
2022-12-18T00:45:00.432Z,-4.62
2022-12-18T00:50:00.590Z,-4.62
2022-12-18T00:55:04.607Z,-4.64
2022-12-18T01:00:01.237Z,-4.68
2022-12-18T01:05:00.459Z,-4.73
2022-12-18T01:10:00.396Z,-4.75
2022-12-18T01:15:00.383Z,-4.80
2022-12-18T01:20:00.643Z,-4.89
2022-12-18T01:25:00.503Z,-4.91
2022-12-18T01:30:00.544Z,-4.94
2022-12-18T01:35:00.445Z,-4.99
2022-12-18T01:40:00.360Z,-5.00
2022-12-18T01:45:14.687Z,-5.01
2022-12-18T01:50:10.247Z,-5.07
2022-12-18T01:55:02.393Z,-5.14
2022-12-18T02:00:04.732Z,-5.18
2022-12-18T02:05:01.866Z,-5.18
2022-12-18T02:10:05.367Z,-5.12
2022-12-18T02:15:09.529Z,-5.09
2022-12-18T02:20:13.901Z,-5.10
2022-12-18T02:25:10.294Z,-5.14
2022-12-18T02:30:02.097Z,-5.24
2022-12-18T02:35:03.404Z,-5.29
2022-12-18T02:40:03.298Z,-5.30
2022-12-18T02:45:00.461Z,-5.34
2022-12-18T02:50:14.382Z,-5.33
2022-12-18T02:55:12.744Z,-5.35
2022-12-18T03:00:06.269Z,-5.31
2022-12-18T03:05:13.664Z,-5.29
2022-12-18T03:10:01.095Z,-5.32
2022-12-18T03:15:14.535Z,-5.35
2022-12-18T03:20:08.491Z,-5.35
2022-12-18T03:25:04.396Z,-5.38
2022-12-18T03:30:04.789Z,-5.42
2022-12-18T03:35:04.720Z,-5.43
2022-12-18T03:40:00.544Z,-5.42
2022-12-18T03:45:09.651Z,-5.43
2022-12-18T03:50:12.869Z,-5.42
2022-12-18T03:55:03.212Z,-5.44
2022-12-18T04:00:06.432Z,-5.42
2022-12-18T04:05:04.400Z,-5.44
2022-12-18T04:10:03.217Z,-5.44
2022-12-18T04:15:00.423Z,-5.43
2022-12-18T04:20:00.406Z,-5.48
2022-12-18T04:25:00.406Z,-5.51
2022-12-18T04:30:00.554Z,-5.53
2022-12-18T04:35:00.439Z,-5.53
2022-12-18T04:40:00.343Z,-5.55
2022-12-18T04:45:00.359Z,-5.60
2022-12-18T04:50:00.376Z,-5.59
2022-12-18T04:55:00.421Z,-5.59
2022-12-18T05:00:00.826Z,-5.60
2022-12-18T05:05:00.534Z,-5.59
2022-12-18T05:10:00.471Z,-5.61
2022-12-18T05:15:03.963Z,-5.57
2022-12-18T05:20:00.366Z,-5.61
2022-12-18T05:25:00.412Z,-5.61
2022-12-18T05:30:00.381Z,-5.62
2022-12-18T05:35:00.436Z,-5.62
2022-12-18T05:40:00.680Z,-5.55
2022-12-18T05:45:00.377Z,-5.55
2022-12-18T05:50:00.429Z,-5.56
2022-12-18T05:55:00.352Z,-5.54
2022-12-18T06:00:02.291Z,-5.53
2022-12-18T06:05:00.402Z,-5.50
2022-12-18T06:10:00.354Z,-5.47
2022-12-18T06:15:00.399Z,-5.47
2022-12-18T06:20:00.437Z,-5.46
2022-12-18T06:25:00.429Z,-5.45
2022-12-18T06:30:00.527Z,-5.44
2022-12-18T06:35:00.460Z,-5.44
2022-12-18T06:40:00.370Z,-5.43
2022-12-18T06:45:00.350Z,-5.47
2022-12-18T06:50:00.433Z,-5.47
2022-12-18T06:55:00.697Z,-5.49
2022-12-18T07:00:00.910Z,-5.47
2022-12-18T07:05:02.759Z,-5.45
2022-12-18T07:10:00.500Z,-5.46
2022-12-18T07:15:00.483Z,-5.43
2022-12-18T07:20:00.354Z,-5.40
2022-12-18T07:25:00.549Z,-5.40
2022-12-18T07:30:00.362Z,-5.40
2022-12-18T07:35:00.338Z,-5.41
2022-12-18T07:40:00.409Z,-5.37
2022-12-18T07:45:00.972Z,-5.32
2022-12-18T07:50:00.398Z,-5.25
2022-12-18T07:55:00.520Z,-5.14
2022-12-18T08:00:00.915Z,-5.06
2022-12-18T08:05:00.442Z,-4.94
2022-12-18T08:10:00.474Z,-4.82
2022-12-18T08:15:00.419Z,-4.68
2022-12-18T08:20:00.385Z,-4.55
2022-12-18T08:25:00.484Z,-4.44
2022-12-18T08:30:00.980Z,-4.35
2022-12-18T08:35:00.369Z,-4.27
2022-12-18T08:40:00.325Z,-4.23
2022-12-18T08:45:00.792Z,-4.16
2022-12-18T08:50:00.389Z,-4.11
2022-12-18T08:55:00.400Z,-4.00
2022-12-18T09:00:01.226Z,-3.86
2022-12-18T09:05:00.406Z,-3.75
2022-12-18T09:10:00.366Z,-3.69
2022-12-18T09:15:00.474Z,-3.61
2022-12-18T09:20:00.357Z,-3.51
2022-12-18T09:25:00.417Z,-3.45
2022-12-18T09:30:01.262Z,-3.37
2022-12-18T09:35:00.339Z,-3.29
2022-12-18T09:40:00.351Z,-3.21
2022-12-18T09:45:02.622Z,-3.09
2022-12-18T09:50:06.596Z,-3.04
2022-12-18T09:55:06.364Z,-2.97
2022-12-18T10:00:19.316Z,-2.83
2022-12-18T10:05:05.617Z,-2.64
2022-12-18T10:10:12.875Z,-2.50
2022-12-18T10:15:08.715Z,-2.47
2022-12-18T10:20:09.683Z,-2.40
2022-12-18T10:25:20.342Z,-2.41
2022-12-18T10:30:04.300Z,-2.41
2022-12-18T10:35:01.130Z,-2.42
2022-12-18T10:40:16.816Z,-2.39
2022-12-18T10:45:09.417Z,-2.33
2022-12-18T10:50:01.150Z,-2.28
2022-12-18T10:55:03.873Z,-2.24
2022-12-18T11:00:20.358Z,-2.18
2022-12-18T11:05:00.763Z,-2.12
2022-12-18T11:10:04.226Z,-2.03
2022-12-18T11:15:00.402Z,-1.99
2022-12-18T11:20:05.075Z,-1.94
2022-12-18T11:25:34.009Z,-1.86
2022-12-18T11:30:20.349Z,-1.84
2022-12-18T11:35:09.772Z,-1.79
2022-12-18T11:40:09.848Z,-1.71
2022-12-18T11:45:14.428Z,-1.64
2022-12-18T11:50:02.260Z,-1.59
2022-12-18T11:55:04.971Z,-1.55
2022-12-18T12:00:13.116Z,-1.51
2022-12-18T12:05:20.349Z,-1.47
2022-12-18T12:10:19.660Z,-1.44
2022-12-18T12:20:20.412Z,-1.40
2022-12-18T12:25:17.424Z,-1.36
2022-12-18T12:30:14.807Z,-1.34
2022-12-18T12:35:20.524Z,-1.29
2022-12-18T12:40:10.966Z,-1.23
2022-12-18T12:45:05.704Z,-1.21
2022-12-18T12:50:03.515Z,-1.19
2022-12-18T12:55:11.553Z,-1.14
2022-12-18T13:00:05.378Z,-1.14
2022-12-18T13:05:13.827Z,-1.13
2022-12-18T13:10:11.695Z,-1.09
2022-12-18T13:15:12.488Z,-1.06
2022-12-18T13:20:11.792Z,-1.03
2022-12-18T13:25:00.767Z,-1.01
2022-12-18T13:30:00.669Z,-0.99
2022-12-18T13:35:20.415Z,-0.98
2022-12-18T13:40:00.626Z,-0.96
2022-12-18T13:45:00.666Z,-0.97
2022-12-18T13:50:18.141Z,-0.98
2022-12-18T13:55:04.413Z,-0.99
2022-12-18T14:00:20.638Z,-0.96
2022-12-18T14:05:00.513Z,-0.97
2022-12-18T14:10:18.716Z,-0.97
2022-12-18T14:15:00.908Z,-0.96
2022-12-18T14:20:00.557Z,-0.95
2022-12-18T14:25:17.987Z,-0.98
2022-12-18T14:30:00.580Z,-0.95
2022-12-18T14:35:13.626Z,-0.94
2022-12-18T14:40:11.066Z,-0.93
2022-12-18T14:45:20.418Z,-0.97
2022-12-18T14:50:00.527Z,-0.99
2022-12-18T14:55:00.722Z,-1.00
2022-12-18T15:00:06.992Z,-1.02
2022-12-18T15:05:13.303Z,-1.03
2022-12-18T15:10:02.637Z,-1.04
2022-12-18T15:15:00.524Z,-1.04
2022-12-18T15:20:09.079Z,-1.05
2022-12-18T15:25:01.453Z,-1.05
2022-12-18T15:30:07.938Z,-1.05
2022-12-18T15:35:10.513Z,-1.05
2022-12-18T15:40:00.712Z,-1.04
2022-12-18T15:45:00.618Z,-1.03
2022-12-18T15:50:00.822Z,-1.02
2022-12-18T15:55:00.496Z,-1.03
2022-12-18T16:00:02.031Z,-0.99
2022-12-18T16:05:00.525Z,-0.99
2022-12-18T16:10:02.328Z,-0.99
2022-12-18T16:15:01.321Z,-0.98
2022-12-18T16:20:00.654Z,-0.97
2022-12-18T16:25:00.602Z,-0.94
2022-12-18T16:30:00.575Z,-0.94
2022-12-18T16:35:01.178Z,-0.95
2022-12-18T16:40:00.515Z,-0.96
2022-12-18T16:45:00.549Z,-0.97
2022-12-18T16:50:00.782Z,-0.97
2022-12-18T16:55:00.632Z,-0.95
2022-12-18T17:00:05.455Z,-0.89
2022-12-18T17:05:00.624Z,-0.87
2022-12-18T17:10:00.513Z,-0.86
2022-12-18T17:15:00.680Z,-0.84
2022-12-18T17:20:00.496Z,-0.82
2022-12-18T17:25:00.559Z,-0.81
2022-12-18T17:30:00.807Z,-0.79
2022-12-18T17:35:06.693Z,-0.78
2022-12-18T17:40:00.553Z,-0.77
2022-12-18T17:45:00.609Z,-0.76
2022-12-18T17:50:00.513Z,-0.76
2022-12-18T17:55:00.644Z,-0.76
2022-12-18T18:00:01.058Z,-0.74
2022-12-18T18:05:00.529Z,-0.73
2022-12-18T18:10:00.515Z,-0.74
2022-12-18T18:15:00.506Z,-0.73
2022-12-18T18:20:00.823Z,-0.70
2022-12-18T18:25:00.581Z,-0.68
2022-12-18T18:30:00.518Z,-0.64
2022-12-18T18:35:00.571Z,-0.60
2022-12-18T18:40:00.610Z,-0.56
2022-12-18T18:45:00.533Z,-0.55
2022-12-18T18:50:00.541Z,-0.53
2022-12-18T18:55:12.723Z,-0.50
2022-12-18T19:00:02.097Z,-0.50
2022-12-18T19:05:00.646Z,-0.48
2022-12-18T19:10:04.482Z,-0.47
2022-12-18T19:15:00.513Z,-0.43
2022-12-18T19:20:00.528Z,-0.39
2022-12-18T19:25:01.334Z,-0.34
2022-12-18T19:30:00.533Z,-0.28
2022-12-18T19:35:00.538Z,-0.27
2022-12-18T19:40:00.521Z,-0.27
2022-12-18T19:45:00.654Z,-0.24
2022-12-18T19:50:00.704Z,-0.24
2022-12-18T19:55:00.681Z,-0.27
2022-12-18T20:00:02.282Z,-0.32
2022-12-18T20:05:01.233Z,-0.33
2022-12-18T20:10:05.545Z,-0.37
2022-12-18T20:15:00.642Z,-0.40
2022-12-18T20:20:00.521Z,-0.42
2022-12-18T20:25:00.528Z,-0.41
2022-12-18T20:30:00.540Z,-0.42
2022-12-18T20:35:00.500Z,-0.48
2022-12-18T20:40:00.637Z,-0.51
2022-12-18T20:45:00.575Z,-0.53
2022-12-18T20:50:00.779Z,-0.50
2022-12-18T20:55:04.999Z,-0.52
2022-12-18T21:00:02.283Z,-0.50
2022-12-18T21:05:00.555Z,-0.52
2022-12-18T21:10:04.702Z,-0.52
2022-12-18T21:15:02.173Z,-0.50
2022-12-18T21:20:00.974Z,-0.51
2022-12-18T21:25:00.511Z,-0.49
2022-12-18T21:30:00.591Z,-0.47
2022-12-18T21:35:00.503Z,-0.44
2022-12-18T21:40:00.657Z,-0.41
2022-12-18T21:45:00.509Z,-0.37
2022-12-18T21:50:00.546Z,-0.34
2022-12-18T21:55:06.548Z,-0.31
2022-12-18T22:00:01.905Z,-0.29
2022-12-18T22:05:00.541Z,-0.26
2022-12-18T22:10:01.928Z,-0.21
2022-12-18T22:15:01.477Z,-0.17
2022-12-18T22:20:00.541Z,-0.12
2022-12-18T22:25:00.526Z,-0.11
2022-12-18T22:30:00.736Z,-0.09
2022-12-18T22:35:08.008Z,-0.10
2022-12-18T22:40:02.780Z,-0.10
2022-12-18T22:45:00.659Z,-0.08
2022-12-18T22:50:00.518Z,-0.08
2022-12-18T22:55:00.505Z,-0.08
2022-12-18T23:00:03.038Z,-0.05
2022-12-18T23:05:00.548Z,-0.02
2022-12-18T23:10:01.380Z,0.01
2022-12-18T23:15:00.578Z,0.01
2022-12-18T23:20:00.791Z,0.04
2022-12-18T23:25:00.539Z,0.09
2022-12-18T23:30:01.173Z,0.13
2022-12-18T23:35:00.528Z,0.13
2022-12-18T23:40:00.636Z,0.17
2022-12-18T23:45:00.623Z,0.22
2022-12-18T23:50:00.606Z,0.21
2022-12-18T23:55:00.522Z,0.20
